sensor_id;sensor_type;location;lat;lon;timestamp;temperature;humidity
31677;DHT22;18385;51.572;6.578;2022-09-09T00:03:27;18.40;63.10
31677;DHT22;18385;51.572;6.578;2022-09-09T00:06:10;18.40;63.20
31677;DHT22;18385;51.572;6.578;2022-09-09T00:12:02;18.50;63.10
31677;DHT22;18385;51.572;6.578;2022-09-09T00:17:26;18.40;63.10
31677;DHT22;18385;51.572;6.578;2022-09-09T00:22:23;18.30;63.40
31677;DHT22;18385;51.572;6.578;2022-09-09T00:24:53;18.30;63.70
31677;DHT22;18385;51.572;6.578;2022-09-09T00:27:41;18.40;63.90
31677;DHT22;18385;51.572;6.578;2022-09-09T00:32:44;18.50;63.80
31677;DHT22;18385;51.572;6.578;2022-09-09T00:37:35;18.50;63.80
31677;DHT22;18385;51.572;6.578;2022-09-09T00:40:11;18.50;63.70
31677;DHT22;18385;51.572;6.578;2022-09-09T00:42:43;18.60;63.90
31677;DHT22;18385;51.572;6.578;2022-09-09T00:47:54;18.60;63.70
31677;DHT22;18385;51.572;6.578;2022-09-09T00:55:54;18.50;64.00
31677;DHT22;18385;51.572;6.578;2022-09-09T00:58:21;18.50;64.20
31677;DHT22;18385;51.572;6.578;2022-09-09T01:01:00;18.50;64.20
31677;DHT22;18385;51.572;6.578;2022-09-09T01:03:38;18.50;64.20
31677;DHT22;18385;51.572;6.578;2022-09-09T01:14:29;18.30;64.30
31677;DHT22;18385;51.572;6.578;2022-09-09T01:28:09;18.10;65.00
31677;DHT22;18385;51.572;6.578;2022-09-09T01:30:39;18.00;65.00
31677;DHT22;18385;51.572;6.578;2022-09-09T01:33:14;18.00;65.00
31677;DHT22;18385;51.572;6.578;2022-09-09T01:35:59;18.00;65.20
31677;DHT22;18385;51.572;6.578;2022-09-09T01:38:31;18.00;65.30
31677;DHT22;18385;51.572;6.578;2022-09-09T01:40:58;17.90;65.30
31677;DHT22;18385;51.572;6.578;2022-09-09T01:43:31;17.90;65.40
31677;DHT22;18385;51.572;6.578;2022-09-09T01:46:00;17.90;65.50
31677;DHT22;18385;51.572;6.578;2022-09-09T01:48:27;17.90;65.70
31677;DHT22;18385;51.572;6.578;2022-09-09T01:51:08;17.90;65.60
31677;DHT22;18385;51.572;6.578;2022-09-09T01:53:34;17.90;65.60
31677;DHT22;18385;51.572;6.578;2022-09-09T01:58:45;17.90;65.80
31677;DHT22;18385;51.572;6.578;2022-09-09T02:01:30;17.90;66.00
31677;DHT22;18385;51.572;6.578;2022-09-09T02:04:00;17.90;66.00
31677;DHT22;18385;51.572;6.578;2022-09-09T02:06:35;17.90;66.10
31677;DHT22;18385;51.572;6.578;2022-09-09T02:09:11;17.90;66.20
31677;DHT22;18385;51.572;6.578;2022-09-09T02:11:40;17.80;66.20
31677;DHT22;18385;51.572;6.578;2022-09-09T02:14:23;17.80;66.30
31677;DHT22;18385;51.572;6.578;2022-09-09T02:17:13;17.90;66.40
31677;DHT22;18385;51.572;6.578;2022-09-09T02:20:12;17.90;66.50
31677;DHT22;18385;51.572;6.578;2022-09-09T02:22:50;17.80;66.40
31677;DHT22;18385;51.572;6.578;2022-09-09T02:25:20;17.80;66.50
31677;DHT22;18385;51.572;6.578;2022-09-09T02:27:50;17.90;66.60
31677;DHT22;18385;51.572;6.578;2022-09-09T02:30:17;17.90;66.60
31677;DHT22;18385;51.572;6.578;2022-09-09T02:32:52;17.90;66.60
31677;DHT22;18385;51.572;6.578;2022-09-09T02:35:24;18.00;66.60
31677;DHT22;18385;51.572;6.578;2022-09-09T02:37:51;18.00;66.60
31677;DHT22;18385;51.572;6.578;2022-09-09T02:40:18;18.00;66.60
31677;DHT22;18385;51.572;6.578;2022-09-09T02:42:49;18.00;66.60
31677;DHT22;18385;51.572;6.578;2022-09-09T02:45:19;18.00;66.60
31677;DHT22;18385;51.572;6.578;2022-09-09T02:50:33;18.00;66.80
31677;DHT22;18385;51.572;6.578;2022-09-09T02:53:35;18.00;66.80
31677;DHT22;18385;51.572;6.578;2022-09-09T02:56:09;18.00;67.00
31677;DHT22;18385;51.572;6.578;2022-09-09T02:58:42;18.00;67.10
31677;DHT22;18385;51.572;6.578;2022-09-09T03:01:08;17.90;66.90
31677;DHT22;18385;51.572;6.578;2022-09-09T03:03:34;18.00;67.00
31677;DHT22;18385;51.572;6.578;2022-09-09T03:06:04;17.90;67.00
31677;DHT22;18385;51.572;6.578;2022-09-09T03:08:31;17.90;67.10
31677;DHT22;18385;51.572;6.578;2022-09-09T03:10:59;17.90;67.10
31677;DHT22;18385;51.572;6.578;2022-09-09T03:13:28;17.90;67.10
31677;DHT22;18385;51.572;6.578;2022-09-09T03:15:53;18.00;67.30
31677;DHT22;18385;51.572;6.578;2022-09-09T03:18:20;18.00;67.40
31677;DHT22;18385;51.572;6.578;2022-09-09T03:20:49;18.10;67.40
31677;DHT22;18385;51.572;6.578;2022-09-09T03:23:17;18.10;67.00
31677;DHT22;18385;51.572;6.578;2022-09-09T03:25:48;18.10;67.20
31677;DHT22;18385;51.572;6.578;2022-09-09T03:28:18;18.20;67.30
31677;DHT22;18385;51.572;6.578;2022-09-09T03:30:45;18.20;67.10
31677;DHT22;18385;51.572;6.578;2022-09-09T03:33:10;18.20;67.10
31677;DHT22;18385;51.572;6.578;2022-09-09T03:35:37;18.30;67.20
31677;DHT22;18385;51.572;6.578;2022-09-09T03:38:03;18.30;67.10
31677;DHT22;18385;51.572;6.578;2022-09-09T03:40:31;18.30;67.20
31677;DHT22;18385;51.572;6.578;2022-09-09T03:42:57;18.30;67.20
31677;DHT22;18385;51.572;6.578;2022-09-09T03:45:24;18.30;67.20
31677;DHT22;18385;51.572;6.578;2022-09-09T03:47:50;18.40;67.30
31677;DHT22;18385;51.572;6.578;2022-09-09T03:50:16;18.40;67.20
31677;DHT22;18385;51.572;6.578;2022-09-09T03:52:45;18.50;67.20
31677;DHT22;18385;51.572;6.578;2022-09-09T03:55:19;18.60;67.30
31677;DHT22;18385;51.572;6.578;2022-09-09T03:57:45;18.60;67.20
31677;DHT22;18385;51.572;6.578;2022-09-09T04:00:12;18.70;67.10
31677;DHT22;18385;51.572;6.578;2022-09-09T04:02:47;18.70;67.10
31677;DHT22;18385;51.572;6.578;2022-09-09T04:05:15;18.70;67.10
31677;DHT22;18385;51.572;6.578;2022-09-09T04:07:43;18.70;67.00
31677;DHT22;18385;51.572;6.578;2022-09-09T04:10:09;18.80;67.10
31677;DHT22;18385;51.572;6.578;2022-09-09T04:12:37;18.80;67.10
31677;DHT22;18385;51.572;6.578;2022-09-09T04:15:03;18.80;67.10
31677;DHT22;18385;51.572;6.578;2022-09-09T04:17:28;18.90;67.10
31677;DHT22;18385;51.572;6.578;2022-09-09T04:19:54;18.90;67.10
31677;DHT22;18385;51.572;6.578;2022-09-09T04:22:21;18.90;67.10
31677;DHT22;18385;51.572;6.578;2022-09-09T04:24:48;18.90;67.10
31677;DHT22;18385;51.572;6.578;2022-09-09T04:27:14;18.90;67.20
31677;DHT22;18385;51.572;6.578;2022-09-09T04:29:40;18.90;67.10
31677;DHT22;18385;51.572;6.578;2022-09-09T04:32:07;18.90;67.20
31677;DHT22;18385;51.572;6.578;2022-09-09T04:34:32;18.90;67.20
31677;DHT22;18385;51.572;6.578;2022-09-09T04:36:58;19.00;67.20
31677;DHT22;18385;51.572;6.578;2022-09-09T04:39:26;18.90;67.20
31677;DHT22;18385;51.572;6.578;2022-09-09T04:41:51;19.00;67.20
31677;DHT22;18385;51.572;6.578;2022-09-09T04:44:17;19.00;67.30
31677;DHT22;18385;51.572;6.578;2022-09-09T04:46:43;19.00;67.30
31677;DHT22;18385;51.572;6.578;2022-09-09T04:49:09;19.00;67.30
31677;DHT22;18385;51.572;6.578;2022-09-09T04:51:36;19.00;67.40
31677;DHT22;18385;51.572;6.578;2022-09-09T04:54:01;19.00;67.50
31677;DHT22;18385;51.572;6.578;2022-09-09T04:56:27;19.00;67.40
31677;DHT22;18385;51.572;6.578;2022-09-09T04:58:56;19.00;67.40
31677;DHT22;18385;51.572;6.578;2022-09-09T05:01:30;19.00;67.30
31677;DHT22;18385;51.572;6.578;2022-09-09T05:04:01;19.00;67.50
31677;DHT22;18385;51.572;6.578;2022-09-09T05:06:28;19.00;67.50
31677;DHT22;18385;51.572;6.578;2022-09-09T05:08:58;19.00;67.50
31677;DHT22;18385;51.572;6.578;2022-09-09T05:11:31;19.00;67.60
31677;DHT22;18385;51.572;6.578;2022-09-09T05:14:02;19.00;67.50
31677;DHT22;18385;51.572;6.578;2022-09-09T05:16:30;19.00;67.50
31677;DHT22;18385;51.572;6.578;2022-09-09T05:18:56;19.00;67.50
31677;DHT22;18385;51.572;6.578;2022-09-09T05:21:24;18.90;67.50
31677;DHT22;18385;51.572;6.578;2022-09-09T05:23:54;18.90;67.70
31677;DHT22;18385;51.572;6.578;2022-09-09T05:26:21;18.80;67.80
31677;DHT22;18385;51.572;6.578;2022-09-09T05:28:48;18.90;67.90
31677;DHT22;18385;51.572;6.578;2022-09-09T05:31:16;18.90;67.90
31677;DHT22;18385;51.572;6.578;2022-09-09T05:33:45;19.00;68.00
31677;DHT22;18385;51.572;6.578;2022-09-09T05:36:14;19.00;67.90
31677;DHT22;18385;51.572;6.578;2022-09-09T05:38:41;19.00;67.80
31677;DHT22;18385;51.572;6.578;2022-09-09T05:41:07;19.10;67.80
31677;DHT22;18385;51.572;6.578;2022-09-09T05:43:33;19.10;67.70
31677;DHT22;18385;51.572;6.578;2022-09-09T05:46:04;19.10;67.70
31677;DHT22;18385;51.572;6.578;2022-09-09T05:48:32;19.10;67.80
31677;DHT22;18385;51.572;6.578;2022-09-09T05:51:00;19.20;67.80
31677;DHT22;18385;51.572;6.578;2022-09-09T05:53:26;19.20;67.80
31677;DHT22;18385;51.572;6.578;2022-09-09T05:56:20;19.20;67.80
31677;DHT22;18385;51.572;6.578;2022-09-09T05:58:48;19.30;67.80
31677;DHT22;18385;51.572;6.578;2022-09-09T06:01:17;19.30;67.80
31677;DHT22;18385;51.572;6.578;2022-09-09T06:03:44;19.40;67.80
31677;DHT22;18385;51.572;6.578;2022-09-09T06:06:15;19.50;67.90
31677;DHT22;18385;51.572;6.578;2022-09-09T06:08:44;19.50;67.70
31677;DHT22;18385;51.572;6.578;2022-09-09T06:11:17;19.60;67.70
31677;DHT22;18385;51.572;6.578;2022-09-09T06:13:43;19.70;67.60
31677;DHT22;18385;51.572;6.578;2022-09-09T06:16:11;19.80;67.50
31677;DHT22;18385;51.572;6.578;2022-09-09T06:18:39;19.80;67.40
31677;DHT22;18385;51.572;6.578;2022-09-09T06:21:07;19.70;67.30
31677;DHT22;18385;51.572;6.578;2022-09-09T06:23:34;19.70;67.50
31677;DHT22;18385;51.572;6.578;2022-09-09T06:26:21;19.70;67.50
31677;DHT22;18385;51.572;6.578;2022-09-09T06:28:50;19.70;67.50
31677;DHT22;18385;51.572;6.578;2022-09-09T06:31:20;19.70;67.50
31677;DHT22;18385;51.572;6.578;2022-09-09T06:33:51;19.80;67.50
31677;DHT22;18385;51.572;6.578;2022-09-09T06:36:19;19.80;67.50
31677;DHT22;18385;51.572;6.578;2022-09-09T06:38:45;19.70;67.30
31677;DHT22;18385;51.572;6.578;2022-09-09T06:41:15;19.80;67.40
31677;DHT22;18385;51.572;6.578;2022-09-09T06:43:43;19.70;67.40
31677;DHT22;18385;51.572;6.578;2022-09-09T06:46:22;19.70;67.50
31677;DHT22;18385;51.572;6.578;2022-09-09T06:48:49;19.70;67.60
31677;DHT22;18385;51.572;6.578;2022-09-09T06:51:20;19.70;67.60
31677;DHT22;18385;51.572;6.578;2022-09-09T06:53:54;19.80;67.70
31677;DHT22;18385;51.572;6.578;2022-09-09T06:56:22;19.90;67.70
31677;DHT22;18385;51.572;6.578;2022-09-09T06:58:51;19.90;67.50
31677;DHT22;18385;51.572;6.578;2022-09-09T07:01:28;20.00;67.40
31677;DHT22;18385;51.572;6.578;2022-09-09T07:03:58;20.10;67.30
31677;DHT22;18385;51.572;6.578;2022-09-09T07:06:28;20.00;67.10
31677;DHT22;18385;51.572;6.578;2022-09-09T07:08:57;20.00;67.20
31677;DHT22;18385;51.572;6.578;2022-09-09T07:11:27;20.00;67.10
31677;DHT22;18385;51.572;6.578;2022-09-09T07:13:54;20.00;67.20
31677;DHT22;18385;51.572;6.578;2022-09-09T07:16:21;20.00;67.20
31677;DHT22;18385;51.572;6.578;2022-09-09T07:18:51;20.10;67.30
31677;DHT22;18385;51.572;6.578;2022-09-09T07:21:17;20.10;67.10
31677;DHT22;18385;51.572;6.578;2022-09-09T07:23:44;20.20;67.10
31677;DHT22;18385;51.572;6.578;2022-09-09T07:26:17;20.20;66.90
31677;DHT22;18385;51.572;6.578;2022-09-09T07:28:42;20.40;67.00
31677;DHT22;18385;51.572;6.578;2022-09-09T07:31:17;20.50;66.90
31677;DHT22;18385;51.572;6.578;2022-09-09T07:33:44;20.70;66.70
31677;DHT22;18385;51.572;6.578;2022-09-09T07:36:16;20.80;66.40
31677;DHT22;18385;51.572;6.578;2022-09-09T07:38:45;21.00;66.20
31677;DHT22;18385;51.572;6.578;2022-09-09T07:41:15;21.10;65.80
31677;DHT22;18385;51.572;6.578;2022-09-09T07:43:42;21.20;65.50
31677;DHT22;18385;51.572;6.578;2022-09-09T07:46:10;21.20;65.20
31677;DHT22;18385;51.572;6.578;2022-09-09T07:48:36;21.20;65.30
31677;DHT22;18385;51.572;6.578;2022-09-09T07:53:29;21.30;65.30
31677;DHT22;18385;51.572;6.578;2022-09-09T07:56:12;21.50;65.30
31677;DHT22;18385;51.572;6.578;2022-09-09T07:58:40;21.70;64.60
31677;DHT22;18385;51.572;6.578;2022-09-09T08:01:13;21.90;64.40
31677;DHT22;18385;51.572;6.578;2022-09-09T08:03:39;22.00;63.90
31677;DHT22;18385;51.572;6.578;2022-09-09T08:06:07;22.10;63.80
31677;DHT22;18385;51.572;6.578;2022-09-09T08:08:35;22.10;63.40
31677;DHT22;18385;51.572;6.578;2022-09-09T08:11:08;22.00;63.10
31677;DHT22;18385;51.572;6.578;2022-09-09T08:13:36;21.90;63.00
31677;DHT22;18385;51.572;6.578;2022-09-09T08:16:10;21.80;63.10
31677;DHT22;18385;51.572;6.578;2022-09-09T08:18:37;21.80;63.10
31677;DHT22;18385;51.572;6.578;2022-09-09T08:21:06;21.80;63.30
31677;DHT22;18385;51.572;6.578;2022-09-09T08:23:32;21.80;63.00
31677;DHT22;18385;51.572;6.578;2022-09-09T08:26:09;21.80;62.90
31677;DHT22;18385;51.572;6.578;2022-09-09T08:28:35;21.80;62.70
31677;DHT22;18385;51.572;6.578;2022-09-09T08:31:06;21.80;62.70
31677;DHT22;18385;51.572;6.578;2022-09-09T08:33:32;21.90;62.50
31677;DHT22;18385;51.572;6.578;2022-09-09T08:35:59;22.00;62.40
31677;DHT22;18385;51.572;6.578;2022-09-09T08:38:25;22.20;62.60
31677;DHT22;18385;51.572;6.578;2022-09-09T08:40:53;22.50;63.00
31677;DHT22;18385;51.572;6.578;2022-09-09T08:43:25;22.80;61.60
31677;DHT22;18385;51.572;6.578;2022-09-09T08:46:33;23.00;61.20
31677;DHT22;18385;51.572;6.578;2022-09-09T08:52:14;23.30;60.50
31677;DHT22;18385;51.572;6.578;2022-09-09T08:54:41;23.30;60.10
31677;DHT22;18385;51.572;6.578;2022-09-09T08:57:13;23.40;59.90
31677;DHT22;18385;51.572;6.578;2022-09-09T08:59:40;23.30;59.50
31677;DHT22;18385;51.572;6.578;2022-09-09T09:02:21;23.30;59.70
31677;DHT22;18385;51.572;6.578;2022-09-09T09:05:22;23.30;59.40
31677;DHT22;18385;51.572;6.578;2022-09-09T09:07:53;23.20;59.20
31677;DHT22;18385;51.572;6.578;2022-09-09T09:13:30;23.00;59.50
31677;DHT22;18385;51.572;6.578;2022-09-09T09:16:06;23.00;59.40
31677;DHT22;18385;51.572;6.578;2022-09-09T09:18:35;23.10;59.20
31677;DHT22;18385;51.572;6.578;2022-09-09T09:26:17;23.20;59.30
31677;DHT22;18385;51.572;6.578;2022-09-09T09:28:44;23.00;58.90
31677;DHT22;18385;51.572;6.578;2022-09-09T09:31:14;22.90;58.70
31677;DHT22;18385;51.572;6.578;2022-09-09T09:33:52;22.80;58.60
31677;DHT22;18385;51.572;6.578;2022-09-09T09:36:34;22.80;58.60
31677;DHT22;18385;51.572;6.578;2022-09-09T09:39:04;22.80;58.70
31677;DHT22;18385;51.572;6.578;2022-09-09T09:41:40;22.90;58.80
31677;DHT22;18385;51.572;6.578;2022-09-09T09:44:32;23.00;58.40
31677;DHT22;18385;51.572;6.578;2022-09-09T09:47:21;23.10;58.20
31677;DHT22;18385;51.572;6.578;2022-09-09T09:49:59;23.00;57.80
31677;DHT22;18385;51.572;6.578;2022-09-09T09:52:28;23.00;57.90
31677;DHT22;18385;51.572;6.578;2022-09-09T09:54:58;23.00;58.00
31677;DHT22;18385;51.572;6.578;2022-09-09T09:57:29;23.00;57.70
31677;DHT22;18385;51.572;6.578;2022-09-09T10:00:22;23.20;57.90
31677;DHT22;18385;51.572;6.578;2022-09-09T10:02:56;23.60;57.80
31677;DHT22;18385;51.572;6.578;2022-09-09T10:05:28;23.90;57.30
31677;DHT22;18385;51.572;6.578;2022-09-09T10:08:11;24.20;57.00
31677;DHT22;18385;51.572;6.578;2022-09-09T10:13:42;24.60;56.00
31677;DHT22;18385;51.572;6.578;2022-09-09T10:16:39;24.60;55.30
31677;DHT22;18385;51.572;6.578;2022-09-09T10:19:12;24.70;55.50
31677;DHT22;18385;51.572;6.578;2022-09-09T10:24:59;24.70;55.00
31677;DHT22;18385;51.572;6.578;2022-09-09T10:33:38;24.40;54.60
31677;DHT22;18385;51.572;6.578;2022-09-09T10:36:23;24.10;54.30
31677;DHT22;18385;51.572;6.578;2022-09-09T10:39:02;23.70;54.70
31677;DHT22;18385;51.572;6.578;2022-09-09T10:52:32;23.00;55.40
31677;DHT22;18385;51.572;6.578;2022-09-09T10:55:20;23.00;55.40
31677;DHT22;18385;51.572;6.578;2022-09-09T10:57:48;23.10;55.30
31677;DHT22;18385;51.572;6.578;2022-09-09T11:00:25;23.10;55.20
31677;DHT22;18385;51.572;6.578;2022-09-09T11:03:01;23.30;55.10
31677;DHT22;18385;51.572;6.578;2022-09-09T11:05:41;23.60;55.10
31677;DHT22;18385;51.572;6.578;2022-09-09T11:08:24;23.90;54.40
31677;DHT22;18385;51.572;6.578;2022-09-09T11:11:15;24.20;54.20
31677;DHT22;18385;51.572;6.578;2022-09-09T11:16:30;24.50;53.30
31677;DHT22;18385;51.572;6.578;2022-09-09T11:21:50;24.20;53.10
31677;DHT22;18385;51.572;6.578;2022-09-09T11:27:09;23.70;53.40
31677;DHT22;18385;51.572;6.578;2022-09-09T11:42:48;24.30;53.10
31677;DHT22;18385;51.572;6.578;2022-09-09T11:45:24;24.30;53.10
31677;DHT22;18385;51.572;6.578;2022-09-09T11:47:57;24.40;52.90
31677;DHT22;18385;51.572;6.578;2022-09-09T11:52:49;24.70;52.70
31677;DHT22;18385;51.572;6.578;2022-09-09T12:00:39;25.30;52.20
31677;DHT22;18385;51.572;6.578;2022-09-09T12:08:42;25.80;50.90
31677;DHT22;18385;51.572;6.578;2022-09-09T12:11:08;25.60;50.80
31677;DHT22;18385;51.572;6.578;2022-09-09T12:13:34;25.40;51.40
31677;DHT22;18385;51.572;6.578;2022-09-09T12:16:00;25.00;50.90
31677;DHT22;18385;51.572;6.578;2022-09-09T12:18:36;24.70;51.10
31677;DHT22;18385;51.572;6.578;2022-09-09T12:24:08;24.20;51.50
31677;DHT22;18385;51.572;6.578;2022-09-09T12:26:43;24.00;51.60
31677;DHT22;18385;51.572;6.578;2022-09-09T12:29:28;23.90;51.80
31677;DHT22;18385;51.572;6.578;2022-09-09T12:32:13;23.40;51.50
31677;DHT22;18385;51.572;6.578;2022-09-09T12:35:00;22.50;52.00
31677;DHT22;18385;51.572;6.578;2022-09-09T12:37:33;21.50;53.50
31677;DHT22;18385;51.572;6.578;2022-09-09T12:40:15;20.70;55.00
31677;DHT22;18385;51.572;6.578;2022-09-09T12:42:44;20.30;56.20
31677;DHT22;18385;51.572;6.578;2022-09-09T12:45:36;20.10;56.70
31677;DHT22;18385;51.572;6.578;2022-09-09T12:48:08;20.20;57.40
31677;DHT22;18385;51.572;6.578;2022-09-09T12:55:58;20.60;58.10
31677;DHT22;18385;51.572;6.578;2022-09-09T12:58:25;21.10;58.50
31677;DHT22;18385;51.572;6.578;2022-09-09T13:00:55;21.60;58.20
31677;DHT22;18385;51.572;6.578;2022-09-09T13:03:26;22.10;58.00
31677;DHT22;18385;51.572;6.578;2022-09-09T13:05:53;22.40;57.40
31677;DHT22;18385;51.572;6.578;2022-09-09T13:08:19;22.60;57.20
31677;DHT22;18385;51.572;6.578;2022-09-09T13:10:56;22.80;57.10
31677;DHT22;18385;51.572;6.578;2022-09-09T13:13:35;23.10;57.10
31677;DHT22;18385;51.572;6.578;2022-09-09T13:16:02;23.30;56.80
31677;DHT22;18385;51.572;6.578;2022-09-09T13:18:35;23.40;56.40
31677;DHT22;18385;51.572;6.578;2022-09-09T13:21:02;23.40;56.20
31677;DHT22;18385;51.572;6.578;2022-09-09T13:23:30;23.50;56.60
31677;DHT22;18385;51.572;6.578;2022-09-09T13:25:59;23.70;56.90
31677;DHT22;18385;51.572;6.578;2022-09-09T13:28:27;24.20;57.10
31677;DHT22;18385;51.572;6.578;2022-09-09T13:31:04;24.40;56.00
31677;DHT22;18385;51.572;6.578;2022-09-09T13:33:34;24.50;55.40
31677;DHT22;18385;51.572;6.578;2022-09-09T13:36:06;24.60;55.80
31677;DHT22;18385;51.572;6.578;2022-09-09T13:38:40;25.20;56.50
31677;DHT22;18385;51.572;6.578;2022-09-09T13:41:27;25.90;55.50
31677;DHT22;18385;51.572;6.578;2022-09-09T13:43:54;26.00;54.30
31677;DHT22;18385;51.572;6.578;2022-09-09T13:46:40;25.90;53.80
31677;DHT22;18385;51.572;6.578;2022-09-09T13:51:37;25.50;53.80
31677;DHT22;18385;51.572;6.578;2022-09-09T13:54:09;25.60;54.30
31677;DHT22;18385;51.572;6.578;2022-09-09T13:56:36;26.00;54.20
31677;DHT22;18385;51.572;6.578;2022-09-09T13:59:04;26.10;53.40
31677;DHT22;18385;51.572;6.578;2022-09-09T14:01:30;25.80;53.00
31677;DHT22;18385;51.572;6.578;2022-09-09T14:03:56;25.70;53.40
31677;DHT22;18385;51.572;6.578;2022-09-09T14:06:22;25.60;53.00
31677;DHT22;18385;51.572;6.578;2022-09-09T14:08:52;25.60;53.10
31677;DHT22;18385;51.572;6.578;2022-09-09T14:11:20;25.50;52.80
31677;DHT22;18385;51.572;6.578;2022-09-09T14:13:47;25.40;52.70
31677;DHT22;18385;51.572;6.578;2022-09-09T14:16:18;25.30;52.60
31677;DHT22;18385;51.572;6.578;2022-09-09T14:18:45;25.00;52.60
31677;DHT22;18385;51.572;6.578;2022-09-09T14:21:11;24.70;52.80
31677;DHT22;18385;51.572;6.578;2022-09-09T14:23:37;24.50;53.00
31677;DHT22;18385;51.572;6.578;2022-09-09T14:26:07;24.20;53.20
31677;DHT22;18385;51.572;6.578;2022-09-09T14:28:32;23.90;53.40
31677;DHT22;18385;51.572;6.578;2022-09-09T14:31:02;23.40;53.50
31677;DHT22;18385;51.572;6.578;2022-09-09T14:33:29;23.00;54.30
31677;DHT22;18385;51.572;6.578;2022-09-09T14:36:02;22.70;54.60
31677;DHT22;18385;51.572;6.578;2022-09-09T14:38:30;22.70;55.50
31677;DHT22;18385;51.572;6.578;2022-09-09T14:40:56;22.60;55.40
31677;DHT22;18385;51.572;6.578;2022-09-09T14:43:23;22.50;55.60
31677;DHT22;18385;51.572;6.578;2022-09-09T14:45:49;22.40;55.80
31677;DHT22;18385;51.572;6.578;2022-09-09T14:48:17;22.20;55.90
31677;DHT22;18385;51.572;6.578;2022-09-09T14:50:43;22.10;56.10
31677;DHT22;18385;51.572;6.578;2022-09-09T14:53:09;21.90;56.30
31677;DHT22;18385;51.572;6.578;2022-09-09T14:55:36;21.70;56.60
31677;DHT22;18385;51.572;6.578;2022-09-09T14:58:03;21.60;57.10
31677;DHT22;18385;51.572;6.578;2022-09-09T15:00:28;21.50;57.30
31677;DHT22;18385;51.572;6.578;2022-09-09T15:02:54;21.50;57.60
31677;DHT22;18385;51.572;6.578;2022-09-09T15:05:20;21.50;57.80
31677;DHT22;18385;51.572;6.578;2022-09-09T15:07:46;21.50;57.80
31677;DHT22;18385;51.572;6.578;2022-09-09T15:10:13;21.60;58.00
31677;DHT22;18385;51.572;6.578;2022-09-09T15:12:39;21.80;58.20
31677;DHT22;18385;51.572;6.578;2022-09-09T15:15:08;22.00;58.20
31677;DHT22;18385;51.572;6.578;2022-09-09T15:17:34;22.20;58.00
31677;DHT22;18385;51.572;6.578;2022-09-09T15:20:05;22.50;58.00
31677;DHT22;18385;51.572;6.578;2022-09-09T15:22:31;22.70;57.70
31677;DHT22;18385;51.572;6.578;2022-09-09T15:24:58;22.90;57.50
31677;DHT22;18385;51.572;6.578;2022-09-09T15:32:32;23.30;57.10
31677;DHT22;18385;51.572;6.578;2022-09-09T15:34:59;23.50;57.50
31677;DHT22;18385;51.572;6.578;2022-09-09T15:37:25;23.80;57.20
31677;DHT22;18385;51.572;6.578;2022-09-09T15:39:50;24.10;56.90
31677;DHT22;18385;51.572;6.578;2022-09-09T15:42:16;24.20;56.60
31677;DHT22;18385;51.572;6.578;2022-09-09T15:44:42;24.20;56.40
31677;DHT22;18385;51.572;6.578;2022-09-09T15:47:11;24.10;56.40
31677;DHT22;18385;51.572;6.578;2022-09-09T15:49:38;24.10;56.60
31677;DHT22;18385;51.572;6.578;2022-09-09T15:52:04;24.00;56.80
31677;DHT22;18385;51.572;6.578;2022-09-09T15:54:36;24.10;56.80
31677;DHT22;18385;51.572;6.578;2022-09-09T15:57:12;24.10;56.80
31677;DHT22;18385;51.572;6.578;2022-09-09T15:59:38;24.10;56.90
31677;DHT22;18385;51.572;6.578;2022-09-09T16:02:06;24.10;56.70
31677;DHT22;18385;51.572;6.578;2022-09-09T16:04:32;24.10;56.80
31677;DHT22;18385;51.572;6.578;2022-09-09T16:07:01;24.00;56.80
31677;DHT22;18385;51.572;6.578;2022-09-09T16:09:29;24.00;56.90
31677;DHT22;18385;51.572;6.578;2022-09-09T16:12:02;23.90;57.10
31677;DHT22;18385;51.572;6.578;2022-09-09T16:14:32;23.80;57.00
31677;DHT22;18385;51.572;6.578;2022-09-09T16:17:01;23.70;57.10
31677;DHT22;18385;51.572;6.578;2022-09-09T16:19:27;23.50;57.20
31677;DHT22;18385;51.572;6.578;2022-09-09T16:21:52;23.30;57.40
31677;DHT22;18385;51.572;6.578;2022-09-09T16:24:19;23.10;57.60
31677;DHT22;18385;51.572;6.578;2022-09-09T16:26:51;22.90;57.80
31677;DHT22;18385;51.572;6.578;2022-09-09T16:29:18;22.80;58.00
31677;DHT22;18385;51.572;6.578;2022-09-09T16:31:45;22.70;58.20
31677;DHT22;18385;51.572;6.578;2022-09-09T16:34:12;22.60;58.30
31677;DHT22;18385;51.572;6.578;2022-09-09T16:36:39;22.50;58.40
31677;DHT22;18385;51.572;6.578;2022-09-09T16:39:10;22.60;58.50
31677;DHT22;18385;51.572;6.578;2022-09-09T16:41:37;22.70;58.60
31677;DHT22;18385;51.572;6.578;2022-09-09T16:44:06;22.70;58.40
31677;DHT22;18385;51.572;6.578;2022-09-09T16:46:34;22.70;58.30
31677;DHT22;18385;51.572;6.578;2022-09-09T16:49:02;22.70;58.40
31677;DHT22;18385;51.572;6.578;2022-09-09T16:51:37;22.70;58.40
31677;DHT22;18385;51.572;6.578;2022-09-09T16:54:05;22.80;58.40
31677;DHT22;18385;51.572;6.578;2022-09-09T16:56:39;22.70;58.30
31677;DHT22;18385;51.572;6.578;2022-09-09T16:59:15;22.60;58.40
31677;DHT22;18385;51.572;6.578;2022-09-09T17:01:43;22.50;58.50
31677;DHT22;18385;51.572;6.578;2022-09-09T17:04:13;22.40;58.50
31677;DHT22;18385;51.572;6.578;2022-09-09T17:06:41;22.30;58.60
31677;DHT22;18385;51.572;6.578;2022-09-09T17:09:10;22.20;58.80
31677;DHT22;18385;51.572;6.578;2022-09-09T17:11:38;22.20;58.90
31677;DHT22;18385;51.572;6.578;2022-09-09T17:14:05;22.10;59.00
31677;DHT22;18385;51.572;6.578;2022-09-09T17:16:32;22.00;59.10
31677;DHT22;18385;51.572;6.578;2022-09-09T17:18:59;21.90;59.30
31677;DHT22;18385;51.572;6.578;2022-09-09T17:21:27;21.90;59.30
31677;DHT22;18385;51.572;6.578;2022-09-09T17:23:55;21.80;59.30
31677;DHT22;18385;51.572;6.578;2022-09-09T17:26:22;21.80;59.50
31677;DHT22;18385;51.572;6.578;2022-09-09T17:28:48;21.70;59.60
31677;DHT22;18385;51.572;6.578;2022-09-09T17:31:16;21.70;59.60
31677;DHT22;18385;51.572;6.578;2022-09-09T17:33:44;21.70;59.70
31677;DHT22;18385;51.572;6.578;2022-09-09T17:36:22;21.70;59.80
31677;DHT22;18385;51.572;6.578;2022-09-09T17:38:49;21.70;59.80
31677;DHT22;18385;51.572;6.578;2022-09-09T17:41:18;21.60;59.80
31677;DHT22;18385;51.572;6.578;2022-09-09T17:43:44;21.60;59.90
31677;DHT22;18385;51.572;6.578;2022-09-09T17:46:19;21.60;60.00
31677;DHT22;18385;51.572;6.578;2022-09-09T17:48:48;21.60;60.00
31677;DHT22;18385;51.572;6.578;2022-09-09T17:51:17;21.70;60.00
31677;DHT22;18385;51.572;6.578;2022-09-09T17:53:49;21.60;60.00
31677;DHT22;18385;51.572;6.578;2022-09-09T17:56:18;21.60;60.10
31677;DHT22;18385;51.572;6.578;2022-09-09T17:58:45;21.60;60.30
31677;DHT22;18385;51.572;6.578;2022-09-09T18:01:14;21.60;60.30
31677;DHT22;18385;51.572;6.578;2022-09-09T18:03:42;21.60;60.30
31677;DHT22;18385;51.572;6.578;2022-09-09T18:06:14;21.60;60.30
31677;DHT22;18385;51.572;6.578;2022-09-09T18:08:42;21.60;60.40